createdAt,value
2023-04-04T00:00:29.628Z,39.20
2023-04-04T00:02:56.153Z,39.18
2023-04-04T00:05:22.878Z,38.99
2023-04-04T00:07:49.345Z,39.06
2023-04-04T00:10:16.380Z,39.32
2023-04-04T00:12:43.258Z,39.07
2023-04-04T00:15:10.082Z,38.90
2023-04-04T00:17:36.653Z,39.57
2023-04-04T00:20:04.398Z,39.85
2023-04-04T00:22:31.483Z,39.80
2023-04-04T00:24:59.022Z,40.11
2023-04-04T00:27:25.781Z,39.91
2023-04-04T00:29:52.485Z,39.91
2023-04-04T00:32:19.045Z,40.21
2023-04-04T00:34:45.652Z,40.96
2023-04-04T00:37:12.976Z,40.60
2023-04-04T00:39:39.653Z,40.54
2023-04-04T00:42:06.607Z,39.77
2023-04-04T00:44:35.661Z,40.14
2023-04-04T00:47:02.997Z,40.51
2023-04-04T00:49:29.428Z,41.07
2023-04-04T00:51:55.911Z,40.56
2023-04-04T00:54:22.563Z,40.39
2023-04-04T00:56:55.037Z,41.06
2023-04-04T00:59:27.773Z,40.83
2023-04-04T01:01:54.652Z,41.22
2023-04-04T01:04:21.213Z,41.02
2023-04-04T01:06:48.952Z,41.09
2023-04-04T01:09:15.697Z,40.87
2023-04-04T01:11:42.868Z,41.34
2023-04-04T01:14:09.492Z,40.81
2023-04-04T01:16:36.396Z,41.07
2023-04-04T01:19:06.809Z,40.83
2023-04-04T01:21:34.714Z,40.68
2023-04-04T01:24:02.965Z,40.96
2023-04-04T01:26:37.467Z,40.89
2023-04-04T01:29:04.579Z,40.84
2023-04-04T01:31:39.267Z,41.04
2023-04-04T01:34:13.122Z,40.46
2023-04-04T01:36:43.493Z,40.93
2023-04-04T01:39:15.622Z,41.27
2023-04-04T01:41:42.291Z,41.37
2023-04-04T01:44:09.485Z,41.03
2023-04-04T01:46:36.291Z,40.93
2023-04-04T01:49:02.921Z,41.48
2023-04-04T01:51:33.753Z,41.00
2023-04-04T01:54:00.495Z,41.54
2023-04-04T01:56:27.959Z,41.99
2023-04-04T01:58:54.447Z,42.07
2023-04-04T02:01:21.288Z,42.19
2023-04-04T02:03:48.518Z,41.47
2023-04-04T02:06:15.009Z,41.99
2023-04-04T02:08:42.121Z,42.03
2023-04-04T02:11:09.667Z,42.30
2023-04-04T02:13:41.192Z,42.05
2023-04-04T02:16:08.586Z,42.19
2023-04-04T02:18:36.132Z,42.43
2023-04-04T02:21:02.776Z,42.06
2023-04-04T02:23:29.267Z,43.15
2023-04-04T02:25:56.025Z,42.65
2023-04-04T02:28:22.739Z,43.28
2023-04-04T02:30:49.206Z,42.58
2023-04-04T02:33:15.783Z,42.61
2023-04-04T02:35:42.452Z,42.54
2023-04-04T02:38:08.988Z,42.69
2023-04-04T02:40:42.290Z,42.50
2023-04-04T02:43:09.144Z,42.03
2023-04-04T02:45:36.308Z,42.43
2023-04-04T02:48:11.553Z,42.42
2023-04-04T02:50:46.059Z,42.22
2023-04-04T02:53:13.663Z,42.14
2023-04-04T02:55:40.496Z,41.91
2023-04-04T02:58:07.115Z,42.09
2023-04-04T03:00:33.631Z,41.58
2023-04-04T03:03:00.637Z,41.59
2023-04-04T03:05:33.557Z,41.34
2023-04-04T03:08:01.033Z,41.39
2023-04-04T03:10:31.676Z,41.51
2023-04-04T03:12:58.541Z,40.80
2023-04-04T03:15:27.611Z,40.46
2023-04-04T03:17:54.330Z,41.23
2023-04-04T03:20:24.745Z,40.71
2023-04-04T03:22:51.336Z,40.04
2023-04-04T03:25:17.908Z,40.24
2023-04-04T03:27:44.438Z,40.12
2023-04-04T03:30:18.618Z,40.49
2023-04-04T03:32:45.287Z,40.40
2023-04-04T03:35:11.880Z,40.32
2023-04-04T03:37:40.467Z,40.40
2023-04-04T03:40:07.433Z,40.41
2023-04-04T03:42:34.977Z,40.45
2023-04-04T03:45:07.475Z,40.57
2023-04-04T03:47:35.551Z,40.06
2023-04-04T03:50:02.514Z,39.83
2023-04-04T03:52:29.643Z,39.90
2023-04-04T03:54:56.118Z,39.87
2023-04-04T03:57:22.622Z,40.17
2023-04-04T03:59:49.112Z,39.73
2023-04-04T04:02:16.023Z,39.66
2023-04-04T04:04:42.617Z,39.29
2023-04-04T04:07:09.158Z,39.17
2023-04-04T04:09:36.664Z,39.02
2023-04-04T04:12:03.189Z,39.12
2023-04-04T04:14:29.690Z,39.21
2023-04-04T04:16:56.805Z,39.28
2023-04-04T04:19:23.291Z,39.23
2023-04-04T04:21:49.835Z,39.56
2023-04-04T04:24:16.946Z,39.40
2023-04-04T04:26:43.571Z,39.67
2023-04-04T04:29:11.529Z,39.68
2023-04-04T04:31:38.608Z,39.32
2023-04-04T04:34:06.675Z,40.15
2023-04-04T04:36:33.351Z,39.69
2023-04-04T04:39:12.244Z,39.30
2023-04-04T04:41:43.693Z,39.07
2023-04-04T04:44:11.251Z,39.74
2023-04-04T04:46:38.031Z,39.76
2023-04-04T04:49:11.340Z,39.32
2023-04-04T04:51:38.835Z,39.76
2023-04-04T04:54:05.700Z,39.63
2023-04-04T04:56:32.686Z,39.52
2023-04-04T04:59:07.523Z,40.02
2023-04-04T05:01:35.262Z,39.85
2023-04-04T05:04:02.124Z,40.14
2023-04-04T05:06:40.807Z,39.66
2023-04-04T05:09:09.671Z,40.04
2023-04-04T05:11:37.716Z,39.54
2023-04-04T05:14:06.757Z,39.54
2023-04-04T05:16:38.347Z,39.25
2023-04-04T05:19:06.475Z,39.16
2023-04-04T05:21:39.504Z,38.98
2023-04-04T05:24:10.268Z,39.01
2023-04-04T05:26:38.740Z,38.49
2023-04-04T05:29:05.579Z,38.36
2023-04-04T05:31:33.251Z,38.15
2023-04-04T05:34:08.427Z,37.98
2023-04-04T05:36:36.584Z,37.32
2023-04-04T05:39:05.824Z,36.94
2023-04-04T05:41:36.476Z,36.40
2023-04-04T05:44:10.708Z,35.76
2023-04-04T05:46:37.623Z,36.11
2023-04-04T05:49:04.399Z,35.82
2023-04-04T05:51:32.927Z,35.12
2023-04-04T05:54:08.689Z,35.23
2023-04-04T05:56:36.886Z,35.22
2023-04-04T05:59:07.609Z,35.27
2023-04-04T06:01:40.619Z,34.57
2023-04-04T06:04:12.136Z,34.77
2023-04-04T06:06:39.531Z,33.81
2023-04-04T06:09:08.656Z,33.69
2023-04-04T06:11:35.346Z,33.87
2023-04-04T06:14:05.871Z,33.85
2023-04-04T06:16:32.778Z,34.30
2023-04-04T06:18:59.256Z,34.12
2023-04-04T06:21:26.583Z,33.69
2023-04-04T06:23:53.375Z,33.04
2023-04-04T06:26:20.533Z,33.25
2023-04-04T06:28:50.819Z,30.86
2023-04-04T06:31:27.870Z,31.18
2023-04-04T06:33:58.511Z,31.64
2023-04-04T06:36:25.056Z,31.32
2023-04-04T06:38:52.172Z,31.29
2023-04-04T06:41:21.244Z,31.12
2023-04-04T06:43:49.992Z,31.24
2023-04-04T06:46:18.219Z,32.05
2023-04-04T06:48:45.095Z,31.60
2023-04-04T06:51:12.110Z,31.54
2023-04-04T06:53:45.231Z,29.78
2023-04-04T06:56:12.065Z,30.56
2023-04-04T06:58:39.553Z,30.49
2023-04-04T07:01:06.202Z,28.92
2023-04-04T07:03:32.792Z,29.30
2023-04-04T07:06:02.052Z,29.28
2023-04-04T07:08:34.423Z,30.42
2023-04-04T07:11:02.611Z,28.40
2023-04-04T07:13:29.533Z,27.83
2023-04-04T07:15:56.211Z,29.13
2023-04-04T07:18:22.690Z,28.59
2023-04-04T07:20:49.410Z,27.77
2023-04-04T07:23:15.912Z,29.07
2023-04-04T07:25:43.943Z,27.35
2023-04-04T07:28:13.232Z,27.51
2023-04-04T07:30:40.369Z,27.48
2023-04-04T07:33:07.183Z,27.63
2023-04-04T07:35:34.469Z,26.51
2023-04-04T07:38:00.956Z,26.32
2023-04-04T07:40:27.406Z,26.75
2023-04-04T07:42:54.635Z,27.39
2023-04-04T07:45:22.167Z,27.30
2023-04-04T07:47:48.730Z,26.93
2023-04-04T07:50:16.091Z,26.83
2023-04-04T07:52:42.890Z,26.80
2023-04-04T07:55:09.492Z,25.76
2023-04-04T07:57:39.697Z,27.10
2023-04-04T08:00:06.975Z,27.75
2023-04-04T08:02:40.236Z,27.17
2023-04-04T08:05:07.509Z,26.46
2023-04-04T08:07:34.004Z,25.80
2023-04-04T08:10:00.460Z,25.21
2023-04-04T08:12:27.090Z,26.40
2023-04-04T08:14:53.792Z,25.57
2023-04-04T08:17:20.993Z,24.01
2023-04-04T08:19:47.475Z,25.45
2023-04-04T08:22:14.416Z,25.70
2023-04-04T08:24:40.826Z,25.56
2023-04-04T08:27:07.368Z,25.13
2023-04-04T08:29:34.263Z,24.36
2023-04-04T08:32:01.171Z,24.86
2023-04-04T08:34:28.559Z,24.75
2023-04-04T08:36:55.122Z,25.20
2023-04-04T08:39:21.556Z,25.43
2023-04-04T08:41:54.422Z,24.49
2023-04-04T08:44:22.855Z,23.56
2023-04-04T08:46:50.174Z,24.51
2023-04-04T08:49:18.827Z,24.42
2023-04-04T08:51:46.566Z,23.09
2023-04-04T08:54:13.104Z,24.79
2023-04-04T08:56:39.621Z,23.91
2023-04-04T08:59:06.352Z,23.43
2023-04-04T09:01:33.310Z,23.56
2023-04-04T09:04:00.613Z,24.51
2023-04-04T09:06:28.056Z,25.10
2023-04-04T09:08:54.823Z,23.86
2023-04-04T09:11:23.511Z,24.03
2023-04-04T09:13:50.887Z,24.30
2023-04-04T09:16:17.535Z,25.10
2023-04-04T09:18:44.125Z,22.67
2023-04-04T09:21:11.915Z,24.03
2023-04-04T09:23:38.771Z,23.02
2023-04-04T09:26:05.511Z,23.19
2023-04-04T09:28:32.590Z,22.30
2023-04-04T09:31:03.190Z,24.10
2023-04-04T09:33:31.128Z,22.30
2023-04-04T09:35:58.915Z,22.67
2023-04-04T09:38:26.437Z,23.89
2023-04-04T09:40:54.487Z,22.37
2023-04-04T09:43:22.434Z,26.06
2023-04-04T09:45:49.879Z,24.87
2023-04-04T09:48:46.271Z,23.32
2023-04-04T09:51:12.974Z,23.90
2023-04-04T09:53:42.091Z,22.80
2023-04-04T09:56:09.267Z,24.25
2023-04-04T09:58:36.503Z,23.52
2023-04-04T10:01:04.459Z,22.57
2023-04-04T10:03:31.149Z,20.47
2023-04-04T10:06:03.765Z,23.07
2023-04-04T10:08:32.151Z,22.25
2023-04-04T10:11:09.833Z,23.29
2023-04-04T10:13:41.166Z,23.88
2023-04-04T10:16:08.823Z,21.67
2023-04-04T10:18:36.084Z,25.41
2023-04-04T10:21:14.569Z,22.84
2023-04-04T10:23:42.819Z,22.34
2023-04-04T10:26:09.979Z,21.77
2023-04-04T10:28:37.022Z,21.94
2023-04-04T10:31:16.290Z,22.08
2023-04-04T10:33:48.667Z,23.30
2023-04-04T10:36:16.897Z,21.28
2023-04-04T10:38:44.972Z,21.85
2023-04-04T10:41:13.804Z,22.70
2023-04-04T10:43:41.980Z,19.38
2023-04-04T10:46:11.740Z,21.02
2023-04-04T10:48:38.777Z,20.80
2023-04-04T10:51:06.591Z,19.89
2023-04-04T10:53:34.001Z,19.35
2023-04-04T10:56:01.669Z,19.51
2023-04-04T10:58:28.536Z,20.58
2023-04-04T11:00:56.132Z,20.75
2023-04-04T11:03:22.749Z,20.13
2023-04-04T11:05:51.484Z,19.69
2023-04-04T11:08:22.075Z,18.79
2023-04-04T11:10:49.177Z,19.20
2023-04-04T11:13:17.075Z,19.51
2023-04-04T11:16:00.324Z,21.54
2023-04-04T11:18:45.856Z,21.50
2023-04-04T11:21:18.427Z,21.19
2023-04-04T11:23:45.308Z,19.36
2023-04-04T11:26:12.093Z,20.02
2023-04-04T11:28:38.872Z,20.34
2023-04-04T11:31:14.523Z,20.14
2023-04-04T11:34:00.165Z,18.78
2023-04-04T11:36:36.179Z,20.09
2023-04-04T11:39:11.817Z,20.80
2023-04-04T11:41:45.106Z,19.91
2023-04-04T11:44:11.813Z,20.25
2023-04-04T11:46:38.361Z,21.16
2023-04-04T11:49:05.951Z,19.83
2023-04-04T11:51:32.741Z,17.79
2023-04-04T11:53:59.696Z,17.75
2023-04-04T11:56:26.159Z,19.65
2023-04-04T11:59:01.610Z,19.98
2023-04-04T12:01:31.717Z,18.53
2023-04-04T12:03:59.524Z,17.75
2023-04-04T12:06:27.168Z,19.39
2023-04-04T12:08:53.689Z,18.54
2023-04-04T12:11:21.542Z,18.34
2023-04-04T12:13:50.592Z,19.71
2023-04-04T12:16:18.902Z,18.04
2023-04-04T12:18:46.069Z,17.54
2023-04-04T12:21:12.664Z,18.14
2023-04-04T12:23:39.077Z,16.86
2023-04-04T12:26:06.009Z,17.35
2023-04-04T12:28:34.199Z,18.49
2023-04-04T12:31:05.482Z,18.09
2023-04-04T12:33:35.349Z,19.05
2023-04-04T12:36:05.494Z,18.25
2023-04-04T12:38:32.360Z,17.82
2023-04-04T12:40:58.954Z,17.69
2023-04-04T12:43:29.790Z,17.99
2023-04-04T12:45:57.552Z,17.76
2023-04-04T12:48:28.182Z,18.40
2023-04-04T12:50:56.695Z,18.00
2023-04-04T12:55:54.567Z,19.31
2023-04-04T12:58:22.755Z,18.60
2023-04-04T13:00:51.162Z,18.80
2023-04-04T13:03:20.182Z,18.01
2023-04-04T13:05:47.419Z,18.29
2023-04-04T13:08:13.892Z,18.70
2023-04-04T13:11:03.835Z,18.73
2023-04-04T13:13:40.968Z,19.70
2023-04-04T13:16:08.434Z,19.69
2023-04-04T13:18:39.239Z,19.88
2023-04-04T13:21:07.394Z,19.73
2023-04-04T13:23:35.107Z,19.37
2023-04-04T13:26:01.812Z,18.58
2023-04-04T13:28:28.306Z,19.56
2023-04-04T13:30:54.892Z,19.99
2023-04-04T13:33:22.361Z,19.19
2023-04-04T13:35:49.749Z,18.98
2023-04-04T13:38:16.572Z,18.89
2023-04-04T13:40:43.071Z,18.98
2023-04-04T13:43:11.569Z,18.58
2023-04-04T13:45:38.729Z,19.82
2023-04-04T13:48:05.489Z,18.64
2023-04-04T13:50:32.893Z,19.90
2023-04-04T13:52:59.386Z,20.18
2023-04-04T13:55:25.972Z,19.10
2023-04-04T13:57:52.549Z,18.62
2023-04-04T14:00:19.101Z,18.78
2023-04-04T14:02:45.644Z,18.75
2023-04-04T14:05:12.460Z,19.15
2023-04-04T14:07:38.953Z,19.22
2023-04-04T14:10:05.804Z,18.48
2023-04-04T14:12:32.308Z,19.31
2023-04-04T14:14:58.736Z,18.54
2023-04-04T14:17:25.235Z,17.73
2023-04-04T14:19:51.696Z,18.30
2023-04-04T14:22:18.181Z,19.51
2023-04-04T14:24:44.649Z,19.34
2023-04-04T14:27:11.234Z,20.21
2023-04-04T14:29:37.918Z,18.57
2023-04-04T14:32:04.431Z,19.21
2023-04-04T14:34:30.983Z,19.54
2023-04-04T14:36:57.544Z,19.52
2023-04-04T14:39:24.043Z,19.11
2023-04-04T14:41:50.550Z,19.92
2023-04-04T14:44:17.045Z,19.63
2023-04-04T14:46:44.710Z,20.41
2023-04-04T14:49:11.209Z,20.02
2023-04-04T14:51:37.758Z,20.06
2023-04-04T14:54:04.430Z,19.70
2023-04-04T14:56:31.361Z,19.98
2023-04-04T14:58:59.943Z,21.26
2023-04-04T15:01:27.263Z,19.79
2023-04-04T15:03:55.570Z,20.15
2023-04-04T15:06:22.301Z,19.08
2023-04-04T15:08:49.268Z,19.04
2023-04-04T15:11:16.715Z,18.81
2023-04-04T15:13:43.800Z,18.50
2023-04-04T15:16:10.361Z,19.26
2023-04-04T15:18:38.191Z,19.59
2023-04-04T15:21:04.974Z,19.72
2023-04-04T15:23:31.511Z,19.57
2023-04-04T15:25:57.995Z,21.19
2023-04-04T15:28:24.497Z,20.33
2023-04-04T15:30:51.380Z,20.99
2023-04-04T15:33:17.893Z,20.43
2023-04-04T15:35:44.440Z,21.66
2023-04-04T15:38:11.037Z,20.93
2023-04-04T15:40:37.512Z,20.33
2023-04-04T15:43:04.008Z,21.59
2023-04-04T15:45:30.604Z,21.58
2023-04-04T15:47:57.050Z,21.44
2023-04-04T15:50:23.575Z,21.94
2023-04-04T15:52:50.069Z,21.50
2023-04-04T15:55:17.094Z,21.78
2023-04-04T15:57:44.888Z,23.13
2023-04-04T16:00:12.143Z,22.64
2023-04-04T16:02:38.754Z,22.75
2023-04-04T16:05:06.150Z,22.28
2023-04-04T16:07:32.643Z,22.79
2023-04-04T16:09:59.124Z,22.43
2023-04-04T16:12:26.153Z,23.38
2023-04-04T16:14:52.608Z,23.66
2023-04-04T16:17:19.068Z,24.05
2023-04-04T16:19:46.296Z,23.95
2023-04-04T16:22:15.117Z,23.95
2023-04-04T16:24:41.645Z,24.22
2023-04-04T16:27:08.064Z,24.60
2023-04-04T16:29:34.701Z,25.10
2023-04-04T16:32:01.299Z,25.99
2023-04-04T16:34:27.794Z,25.74
2023-04-04T16:36:54.277Z,25.45
2023-04-04T16:39:20.789Z,25.22
2023-04-04T16:41:47.223Z,25.55
2023-04-04T16:44:15.306Z,26.19
2023-04-04T16:46:41.814Z,26.52
2023-04-04T16:49:08.611Z,26.71
2023-04-04T16:51:35.173Z,26.49
2023-04-04T16:54:01.645Z,26.73
2023-04-04T16:56:28.081Z,26.33
2023-04-04T16:58:54.636Z,27.17
2023-04-04T17:01:22.653Z,27.31
2023-04-04T17:03:49.521Z,27.63
2023-04-04T17:06:16.056Z,27.56
2023-04-04T17:08:43.206Z,28.33
2023-04-04T17:11:09.706Z,27.92
2023-04-04T17:13:36.205Z,28.43
2023-04-04T17:16:02.785Z,28.54
2023-04-04T17:18:29.479Z,28.08
2023-04-04T17:20:56.020Z,28.45
2023-04-04T17:23:22.454Z,29.03
2023-04-04T17:25:48.915Z,29.06
2023-04-04T17:28:15.519Z,29.12
2023-04-04T17:30:42.600Z,29.43
2023-04-04T17:33:09.167Z,29.40
2023-04-04T17:35:36.040Z,30.47
2023-04-04T17:38:02.553Z,29.88
2023-04-04T17:40:28.993Z,29.77
2023-04-04T17:42:55.486Z,30.12
2023-04-04T17:45:22.594Z,30.20
2023-04-04T17:47:49.095Z,30.13
2023-04-04T17:50:15.924Z,30.62
2023-04-04T17:52:42.430Z,31.03
2023-04-04T17:55:09.169Z,31.09
2023-04-04T17:57:36.004Z,30.83
2023-04-04T18:00:03.185Z,30.97
2023-04-04T18:02:34.577Z,31.51
2023-04-04T18:05:01.126Z,31.29
2023-04-04T18:07:27.709Z,31.32
2023-04-04T18:09:54.136Z,32.09
2023-04-04T18:12:20.655Z,31.36
2023-04-04T18:14:47.200Z,31.56
2023-04-04T18:17:14.011Z,32.42
2023-04-04T18:19:41.470Z,31.90
2023-04-04T18:22:08.327Z,32.71
2023-04-04T18:24:34.833Z,32.60
2023-04-04T18:27:01.473Z,32.75
2023-04-04T18:29:30.742Z,32.93
2023-04-04T18:31:59.735Z,32.56
2023-04-04T18:34:26.297Z,32.59
2023-04-04T18:36:52.790Z,33.63
2023-04-04T18:39:19.325Z,32.95
2023-04-04T18:41:46.478Z,34.00
2023-04-04T18:44:13.210Z,33.62
2023-04-04T18:46:40.543Z,33.58
2023-04-04T18:49:07.215Z,33.76
2023-04-04T18:51:33.926Z,35.44
2023-04-04T18:54:00.600Z,35.74
2023-04-04T18:56:27.376Z,34.97
2023-04-04T18:58:53.905Z,36.39
2023-04-04T19:01:20.497Z,36.36
2023-04-04T19:03:47.599Z,36.06
2023-04-04T19:06:14.473Z,36.09
2023-04-04T19:08:42.371Z,36.43
2023-04-04T19:11:09.048Z,37.00
2023-04-04T19:13:36.013Z,37.29
2023-04-04T19:16:02.549Z,37.27
2023-04-04T19:18:29.123Z,37.10
2023-04-04T19:20:55.606Z,37.28
2023-04-04T19:23:22.045Z,37.14
2023-04-04T19:25:48.674Z,37.99
2023-04-04T19:28:15.157Z,38.56
2023-04-04T19:30:44.750Z,37.47
2023-04-04T19:33:12.037Z,37.15
2023-04-04T19:36:05.010Z,37.24
2023-04-04T19:38:32.480Z,37.22
2023-04-04T19:41:00.224Z,36.83
2023-04-04T19:43:27.206Z,37.88
2023-04-04T19:45:54.964Z,36.95
2023-04-04T19:48:42.338Z,37.45
2023-04-04T19:51:14.932Z,38.27
2023-04-04T19:53:42.201Z,38.78
2023-04-04T19:56:10.064Z,37.99
2023-04-04T19:58:37.364Z,39.22
2023-04-04T20:01:04.717Z,39.21
2023-04-04T20:03:38.997Z,41.01
2023-04-04T20:06:09.582Z,39.92
2023-04-04T20:08:48.800Z,40.57
2023-04-04T20:11:19.229Z,39.28
2023-04-04T20:13:46.112Z,41.21
2023-04-04T20:16:13.540Z,40.41
2023-04-04T20:18:41.728Z,39.94
2023-04-04T20:21:16.015Z,39.73
2023-04-04T20:23:47.232Z,39.71
2023-04-04T20:26:33.647Z,40.88
2023-04-04T20:29:00.284Z,41.09
2023-04-04T20:31:26.742Z,40.67
2023-04-04T20:33:53.227Z,40.38
2023-04-04T20:36:19.666Z,41.20
2023-04-04T20:38:46.644Z,40.41
2023-04-04T20:41:16.372Z,40.32
2023-04-04T20:43:44.497Z,41.14
2023-04-04T20:46:12.340Z,40.91
2023-04-04T20:48:40.001Z,42.79
2023-04-04T20:51:23.837Z,42.54
2023-04-04T20:53:51.484Z,42.21
2023-04-04T20:56:30.360Z,41.40
2023-04-04T20:58:58.334Z,41.14
2023-04-04T21:01:24.774Z,40.96
2023-04-04T21:03:51.893Z,41.70
2023-04-04T21:06:28.635Z,43.17
2023-04-04T21:08:55.443Z,42.67
2023-04-04T21:11:28.845Z,42.47
2023-04-04T21:13:55.809Z,42.69
2023-04-04T21:16:23.979Z,41.49
2023-04-04T21:18:54.192Z,43.19
2023-04-04T21:21:20.925Z,43.38
2023-04-04T21:23:54.039Z,43.93
2023-04-04T21:26:26.690Z,43.29
2023-04-04T21:28:53.715Z,42.92
2023-04-04T21:31:21.824Z,42.54
2023-04-04T21:33:49.580Z,43.08
2023-04-04T21:36:26.224Z,42.64
2023-04-04T21:38:59.919Z,42.16
2023-04-04T21:41:26.660Z,43.18
2023-04-04T21:43:54.161Z,43.77
2023-04-04T21:46:21.891Z,44.47
2023-04-04T21:48:48.447Z,44.59
2023-04-04T21:51:14.889Z,44.59
2023-04-04T21:53:41.381Z,45.01
2023-04-04T21:56:07.867Z,45.72
2023-04-04T21:58:34.386Z,45.74
2023-04-04T22:01:00.919Z,46.91
2023-04-04T22:03:27.374Z,46.54
2023-04-04T22:05:53.937Z,46.48
2023-04-04T22:08:20.377Z,47.23
2023-04-04T22:10:50.112Z,47.09
2023-04-04T22:13:19.476Z,47.33
2023-04-04T22:15:47.060Z,46.56
2023-04-04T22:18:17.305Z,46.27
2023-04-04T22:20:44.886Z,48.15
2023-04-04T22:23:12.302Z,47.40
2023-04-04T22:25:39.256Z,48.39
2023-04-04T22:28:08.563Z,45.41
2023-04-04T22:30:36.018Z,46.57
2023-04-04T22:33:05.239Z,46.40
2023-04-04T22:35:32.558Z,48.03
2023-04-04T22:38:03.162Z,48.35
2023-04-04T22:40:30.775Z,48.66
2023-04-04T22:42:57.882Z,49.02
2023-04-04T22:45:25.091Z,50.56
2023-04-04T22:47:51.601Z,51.16
2023-04-04T22:50:19.566Z,50.77
2023-04-04T22:52:46.154Z,50.41
2023-04-04T22:55:13.698Z,50.11
2023-04-04T22:57:40.300Z,49.71
2023-04-04T23:00:11.333Z,49.61
2023-04-04T23:02:38.617Z,51.12
2023-04-04T23:05:05.963Z,51.42
2023-04-04T23:07:32.623Z,51.02
2023-04-04T23:09:59.105Z,51.52
2023-04-04T23:12:26.115Z,51.85
2023-04-04T23:14:52.678Z,51.24
2023-04-04T23:17:19.284Z,50.87
2023-04-04T23:19:45.755Z,51.35
2023-04-04T23:22:12.263Z,50.11
2023-04-04T23:24:38.734Z,49.28
2023-04-04T23:27:05.381Z,49.30
2023-04-04T23:29:31.858Z,49.50
2023-04-04T23:31:58.313Z,50.30
2023-04-04T23:34:24.807Z,50.01
2023-04-04T23:36:51.396Z,50.71
2023-04-04T23:39:18.306Z,50.91
2023-04-04T23:41:44.776Z,52.14
2023-04-04T23:44:11.472Z,52.57
2023-04-04T23:46:38.694Z,52.22
2023-04-04T23:49:05.303Z,52.47
2023-04-04T23:51:38.288Z,53.44
2023-04-04T23:54:05.641Z,53.63
2023-04-04T23:56:32.772Z,53.57
2023-04-04T23:58:59.880Z,51.82
